createdAt,value
2019-02-17T00:00:03.399Z,22.40
2019-02-17T00:02:30.485Z,22.30
2019-02-17T00:04:57.736Z,22.30
2019-02-17T00:07:24.812Z,22.40
2019-02-17T00:09:51.955Z,22.30
2019-02-17T00:12:19.043Z,22.40
2019-02-17T00:14:46.109Z,22.30
2019-02-17T00:17:13.656Z,22.30
2019-02-17T00:19:40.738Z,22.40
2019-02-17T00:22:07.815Z,22.30
2019-02-17T00:24:35.082Z,22.30
2019-02-17T00:27:02.383Z,22.30
2019-02-17T00:29:30.567Z,22.30
2019-02-17T00:31:57.625Z,22.30
2019-02-17T00:34:24.899Z,22.30
2019-02-17T00:36:52.007Z,22.30
2019-02-17T00:39:19.110Z,22.30
2019-02-17T00:41:46.165Z,22.30
2019-02-17T00:44:13.530Z,22.30
2019-02-17T00:46:40.588Z,22.30
2019-02-17T00:49:08.001Z,22.30
2019-02-17T00:51:35.593Z,22.30
2019-02-17T00:54:02.622Z,22.30
2019-02-17T00:56:29.715Z,22.30
2019-02-17T00:58:56.786Z,22.20
2019-02-17T01:01:23.905Z,22.20
2019-02-17T01:03:51.125Z,22.20
2019-02-17T01:06:18.186Z,22.30
2019-02-17T01:08:45.271Z,22.30
2019-02-17T01:11:12.369Z,22.30
2019-02-17T01:13:39.437Z,22.20
2019-02-17T01:16:06.568Z,22.20
2019-02-17T01:18:33.666Z,22.30
2019-02-17T01:21:00.721Z,22.30
2019-02-17T01:23:27.782Z,22.30
2019-02-17T01:25:54.944Z,22.30
2019-02-17T01:28:22.050Z,22.30
2019-02-17T01:30:49.107Z,22.20
2019-02-17T01:33:16.195Z,22.20
2019-02-17T01:35:43.308Z,22.30
2019-02-17T01:38:10.374Z,22.20
2019-02-17T01:40:37.433Z,22.20
2019-02-17T01:43:04.559Z,22.20
2019-02-17T01:45:31.617Z,22.20
2019-02-17T01:48:01.200Z,22.20
2019-02-17T01:50:27.553Z,22.20
2019-02-17T01:52:54.632Z,22.20
2019-02-17T01:55:21.687Z,22.20
2019-02-17T01:57:48.785Z,22.20
2019-02-17T02:00:15.865Z,22.20
2019-02-17T02:02:42.907Z,22.20
2019-02-17T02:05:10.170Z,22.20
2019-02-17T02:07:37.238Z,22.30
2019-02-17T02:10:04.319Z,22.20
2019-02-17T02:12:31.413Z,22.20
2019-02-17T02:14:58.467Z,22.20
2019-02-17T02:17:25.516Z,22.20
2019-02-17T02:19:52.602Z,22.20
2019-02-17T02:22:19.663Z,22.20
2019-02-17T02:24:46.751Z,22.20
2019-02-17T02:27:13.809Z,22.20
2019-02-17T02:29:41.519Z,22.20
2019-02-17T02:32:09.627Z,22.20
2019-02-17T02:34:36.791Z,22.20
2019-02-17T02:37:03.930Z,22.20
2019-02-17T02:39:31.001Z,22.20
2019-02-17T02:41:58.091Z,22.20
2019-02-17T02:44:25.144Z,22.20
2019-02-17T02:46:52.440Z,22.20
2019-02-17T02:49:19.500Z,22.20
2019-02-17T02:51:46.589Z,22.20
2019-02-17T02:54:13.646Z,22.20
2019-02-17T02:56:40.900Z,22.20
2019-02-17T02:59:07.970Z,22.20
2019-02-17T03:01:35.047Z,22.20
2019-02-17T03:04:02.182Z,22.20
2019-02-17T03:06:29.273Z,22.20
2019-02-17T03:08:56.343Z,22.20
2019-02-17T03:11:23.405Z,22.20
2019-02-17T03:13:50.685Z,22.20
2019-02-17T03:16:17.735Z,22.20
2019-02-17T03:18:44.796Z,22.20
2019-02-17T03:21:11.887Z,22.20
2019-02-17T03:23:39.071Z,22.10
2019-02-17T03:26:06.139Z,22.10
2019-02-17T03:28:33.199Z,22.20
2019-02-17T03:31:00.295Z,22.10
2019-02-17T03:33:27.362Z,22.10
2019-02-17T03:35:54.622Z,22.10
2019-02-17T03:38:21.669Z,22.10
2019-02-17T03:40:48.728Z,22.10
2019-02-17T03:43:15.964Z,22.10
2019-02-17T03:45:43.217Z,22.10
2019-02-17T03:48:10.475Z,22.10
2019-02-17T03:50:37.529Z,22.10
2019-02-17T03:53:04.635Z,22.10
2019-02-17T03:55:31.731Z,22.10
2019-02-17T03:57:58.786Z,22.10
2019-02-17T04:00:25.865Z,22.20
2019-02-17T04:02:52.971Z,22.10
2019-02-17T04:05:20.027Z,22.10
2019-02-17T04:07:47.119Z,22.10
2019-02-17T04:10:14.226Z,22.10
2019-02-17T04:12:41.370Z,22.10
2019-02-17T04:15:08.614Z,22.10
2019-02-17T04:17:35.716Z,22.10
2019-02-17T04:20:02.849Z,22.10
2019-02-17T04:22:29.938Z,22.10
2019-02-17T04:24:57.210Z,22.10
2019-02-17T04:27:24.474Z,22.10
2019-02-17T04:29:51.603Z,22.10
2019-02-17T04:32:19.327Z,22.10
2019-02-17T04:34:46.420Z,22.10
2019-02-17T04:37:13.524Z,22.10
2019-02-17T04:39:40.587Z,22.10
2019-02-17T04:42:07.670Z,22.10
2019-02-17T04:44:34.729Z,22.10
2019-02-17T04:47:01.865Z,22.10
2019-02-17T04:49:29.104Z,22.10
2019-02-17T04:51:56.164Z,22.10
2019-02-17T04:54:23.417Z,22.10
2019-02-17T04:56:50.499Z,22.10
2019-02-17T04:59:17.586Z,22.10
2019-02-17T05:01:44.652Z,22.10
2019-02-17T05:04:11.823Z,22.10
2019-02-17T05:06:40.800Z,22.10
2019-02-17T05:09:07.665Z,22.10
2019-02-17T05:11:34.730Z,22.10
2019-02-17T05:14:01.812Z,22.00
2019-02-17T05:16:28.896Z,22.10
2019-02-17T05:18:55.983Z,22.10
2019-02-17T05:21:23.068Z,22.10
2019-02-17T05:23:50.128Z,22.10
2019-02-17T05:26:17.297Z,22.10
2019-02-17T05:28:44.391Z,22.10
2019-02-17T05:31:11.475Z,22.10
2019-02-17T05:33:38.541Z,22.00
2019-02-17T05:36:05.704Z,22.00
2019-02-17T05:38:32.817Z,22.00
2019-02-17T05:40:59.891Z,22.00
2019-02-17T05:43:26.987Z,22.00
2019-02-17T05:45:54.049Z,22.10
2019-02-17T05:48:21.138Z,22.00
2019-02-17T05:50:48.205Z,22.10
2019-02-17T05:53:15.315Z,22.00
2019-02-17T05:55:42.379Z,22.00
2019-02-17T05:58:09.443Z,22.00
2019-02-17T06:00:36.533Z,22.00
2019-02-17T06:03:03.626Z,22.00
2019-02-17T06:05:30.879Z,22.00
2019-02-17T06:07:57.947Z,22.10
2019-02-17T06:10:25.034Z,22.00
2019-02-17T06:12:52.092Z,22.00
2019-02-17T06:15:19.289Z,22.00
2019-02-17T06:17:46.351Z,22.00
2019-02-17T06:20:13.463Z,22.00
2019-02-17T06:22:40.610Z,22.00
2019-02-17T06:25:07.669Z,22.00
2019-02-17T06:27:34.913Z,22.00
2019-02-17T06:30:01.970Z,22.00
2019-02-17T06:32:29.071Z,22.00
2019-02-17T06:34:56.130Z,22.00
2019-02-17T06:37:23.323Z,22.00
2019-02-17T06:39:50.562Z,22.00
2019-02-17T06:42:17.622Z,22.00
2019-02-17T06:44:44.863Z,22.00
2019-02-17T06:47:12.476Z,22.00
2019-02-17T06:49:39.576Z,22.00
2019-02-17T06:52:06.669Z,22.00
2019-02-17T06:54:33.886Z,22.00
2019-02-17T06:57:00.946Z,22.00
2019-02-17T06:59:28.043Z,22.00
2019-02-17T07:01:55.111Z,22.00
2019-02-17T07:04:22.280Z,22.00
2019-02-17T07:06:49.342Z,22.00
2019-02-17T07:09:16.436Z,22.00
2019-02-17T07:11:43.581Z,22.10
2019-02-17T07:14:10.880Z,22.10
2019-02-17T07:16:37.966Z,22.20
2019-02-17T07:19:05.067Z,22.20
2019-02-17T07:21:32.131Z,22.30
2019-02-17T07:23:59.221Z,22.30
2019-02-17T07:26:26.285Z,22.30
2019-02-17T07:28:53.397Z,22.30
2019-02-17T07:31:22.536Z,22.00
2019-02-17T07:33:49.324Z,21.90
2019-02-17T07:36:16.452Z,22.00
2019-02-17T07:38:43.508Z,22.00
2019-02-17T07:41:10.613Z,22.10
2019-02-17T07:43:37.906Z,22.20
2019-02-17T07:46:04.973Z,22.20
2019-02-17T07:48:32.081Z,22.30
2019-02-17T07:50:59.141Z,22.30
2019-02-17T07:53:26.291Z,22.30
2019-02-17T07:55:53.571Z,22.30
2019-02-17T07:58:20.618Z,22.30
2019-02-17T08:00:47.729Z,22.30
2019-02-17T08:03:14.909Z,22.30
2019-02-17T08:05:41.979Z,22.30
2019-02-17T08:08:09.083Z,22.30
2019-02-17T08:10:36.148Z,22.20
2019-02-17T08:13:03.258Z,22.20
2019-02-17T08:15:30.311Z,22.20
2019-02-17T08:17:57.387Z,22.20
2019-02-17T08:20:36.328Z,22.20
2019-02-17T08:22:58.711Z,22.20
2019-02-17T08:25:25.766Z,22.20
2019-02-17T08:27:52.848Z,22.20
2019-02-17T08:30:20.003Z,22.20
2019-02-17T08:32:47.106Z,22.20
2019-02-17T08:35:14.167Z,22.20
2019-02-17T08:37:41.345Z,22.10
2019-02-17T08:40:08.601Z,22.10
2019-02-17T08:42:35.681Z,22.10
2019-02-17T08:45:02.747Z,22.10
2019-02-17T08:47:29.950Z,22.10
2019-02-17T08:49:57.051Z,22.10
2019-02-17T08:52:24.117Z,22.10
2019-02-17T08:54:51.296Z,22.10
2019-02-17T08:57:18.389Z,22.20
2019-02-17T08:59:45.453Z,22.20
2019-02-17T09:02:13.269Z,22.30
2019-02-17T09:04:40.522Z,22.40
2019-02-17T09:07:07.610Z,22.40
2019-02-17T09:09:34.683Z,22.50
2019-02-17T09:12:01.743Z,22.50
2019-02-17T09:14:28.909Z,22.60
2019-02-17T09:16:55.974Z,22.70
2019-02-17T09:19:23.092Z,22.70
2019-02-17T09:21:50.158Z,22.70
2019-02-17T09:24:17.216Z,22.70
2019-02-17T09:26:44.315Z,22.60
2019-02-17T09:29:11.412Z,22.60
2019-02-17T09:31:38.499Z,22.60
2019-02-17T09:34:05.558Z,22.60
2019-02-17T09:36:32.743Z,22.60
2019-02-17T09:38:59.805Z,22.60
2019-02-17T09:41:26.900Z,22.60
2019-02-17T09:43:53.966Z,22.60
2019-02-17T09:46:21.163Z,22.60
2019-02-17T09:48:48.541Z,22.60
2019-02-17T09:51:15.653Z,22.70
2019-02-17T09:53:42.730Z,22.70
2019-02-17T09:56:09.977Z,22.70
2019-02-17T09:58:37.041Z,22.80
2019-02-17T10:01:04.129Z,22.70
2019-02-17T10:03:31.315Z,22.70
2019-02-17T10:05:58.367Z,22.70
2019-02-17T10:08:25.460Z,22.70
2019-02-17T10:10:52.575Z,22.70
2019-02-17T10:13:19.690Z,22.70
2019-02-17T10:15:46.946Z,22.70
2019-02-17T10:18:14.180Z,22.70
2019-02-17T10:20:41.287Z,22.70
2019-02-17T10:23:08.895Z,22.80
2019-02-17T10:25:36.232Z,22.80
2019-02-17T10:28:03.522Z,22.80
2019-02-17T10:30:30.727Z,22.80
2019-02-17T10:32:57.874Z,22.80
2019-02-17T10:35:25.173Z,22.80
2019-02-17T10:37:52.263Z,22.80
2019-02-17T10:40:19.319Z,22.80
2019-02-17T10:42:46.425Z,22.80
2019-02-17T10:45:13.495Z,22.80
2019-02-17T10:47:40.567Z,22.80
2019-02-17T10:50:09.193Z,22.80
2019-02-17T10:52:37.009Z,22.80
2019-02-17T10:55:05.385Z,22.80
2019-02-17T10:57:34.806Z,22.80
2019-02-17T11:00:02.696Z,22.80
2019-02-17T11:02:29.754Z,22.80
2019-02-17T11:04:57.118Z,22.80
2019-02-17T11:07:24.225Z,22.80
2019-02-17T11:09:51.309Z,22.80
2019-02-17T11:12:18.399Z,22.80
2019-02-17T11:14:45.463Z,22.80
2019-02-17T11:17:12.902Z,22.80
2019-02-17T11:19:41.870Z,22.80
2019-02-17T11:22:09.387Z,22.80
2019-02-17T11:24:36.578Z,22.80
2019-02-17T11:27:03.646Z,22.80
2019-02-17T11:29:30.723Z,22.80
2019-02-17T11:31:57.813Z,22.80
2019-02-17T11:34:25.546Z,22.80
2019-02-17T11:36:53.028Z,22.80
2019-02-17T11:39:20.270Z,22.80
2019-02-17T11:41:47.359Z,22.80
2019-02-17T11:44:14.603Z,22.80
2019-02-17T11:46:42.502Z,22.80
2019-02-17T11:49:09.667Z,22.80
2019-02-17T11:51:37.350Z,22.80
2019-02-17T11:54:04.631Z,22.80
2019-02-17T11:56:31.785Z,22.80
2019-02-17T11:58:59.260Z,22.80
2019-02-17T12:01:26.368Z,22.80
2019-02-17T12:03:53.921Z,22.80
2019-02-17T12:06:21.272Z,22.80
2019-02-17T12:08:48.366Z,22.80
2019-02-17T12:11:15.774Z,22.70
2019-02-17T12:13:43.878Z,22.70
2019-02-17T12:16:11.152Z,22.70
2019-02-17T12:18:38.260Z,22.70
2019-02-17T12:21:05.379Z,22.70
2019-02-17T12:23:32.746Z,22.70
2019-02-17T12:25:59.801Z,22.70
2019-02-17T12:28:27.206Z,22.70
2019-02-17T12:30:54.305Z,22.70
2019-02-17T12:33:23.309Z,22.70
2019-02-17T12:35:51.049Z,22.70
2019-02-17T12:38:18.114Z,22.60
2019-02-17T12:40:45.178Z,22.60
2019-02-17T12:43:12.331Z,22.60
2019-02-17T12:45:39.422Z,22.60
2019-02-17T12:48:06.486Z,22.60
2019-02-17T12:50:33.578Z,22.60
2019-02-17T12:53:00.636Z,22.60
2019-02-17T12:55:27.776Z,22.60
2019-02-17T12:57:54.941Z,22.60
2019-02-17T13:00:22.060Z,22.60
2019-02-17T13:02:49.156Z,22.60
2019-02-17T13:05:16.245Z,22.60
2019-02-17T13:07:43.311Z,22.60
2019-02-17T13:10:10.394Z,22.60
2019-02-17T13:12:37.499Z,22.60
2019-02-17T13:15:04.571Z,22.60
2019-02-17T13:17:31.827Z,22.60
2019-02-17T13:19:58.880Z,22.60
2019-02-17T13:22:25.978Z,22.60
2019-02-17T13:24:53.026Z,22.50
2019-02-17T13:27:20.122Z,22.50
2019-02-17T13:29:47.194Z,22.50
2019-02-17T13:32:14.576Z,22.60
2019-02-17T13:34:41.664Z,22.50
2019-02-17T13:37:08.822Z,22.60
2019-02-17T13:39:35.910Z,22.50
2019-02-17T13:42:04.740Z,22.50
2019-02-17T13:44:31.867Z,22.50
2019-02-17T13:46:58.962Z,22.50
2019-02-17T13:49:26.016Z,22.60
2019-02-17T13:51:53.116Z,22.50
2019-02-17T13:54:20.183Z,22.50
2019-02-17T13:56:47.247Z,22.50
2019-02-17T13:59:14.343Z,22.50
2019-02-17T14:01:41.414Z,22.50
2019-02-17T14:04:08.504Z,22.50
2019-02-17T14:06:35.573Z,22.50
2019-02-17T14:09:02.651Z,22.50
2019-02-17T14:11:29.747Z,22.50
2019-02-17T14:13:56.991Z,22.50
2019-02-17T14:16:24.043Z,22.50
2019-02-17T14:18:51.142Z,22.50
2019-02-17T14:21:18.215Z,22.50
2019-02-17T14:23:45.262Z,22.50
2019-02-17T14:26:12.440Z,22.50
2019-02-17T14:28:39.494Z,22.50
2019-02-17T14:31:06.599Z,22.50
2019-02-17T14:33:33.701Z,22.50
2019-02-17T14:36:00.798Z,22.50
2019-02-17T14:38:27.889Z,22.50
2019-02-17T14:40:54.956Z,22.50
2019-02-17T14:43:22.192Z,22.50
2019-02-17T14:45:49.259Z,22.50
2019-02-17T14:48:17.282Z,22.50
2019-02-17T14:50:44.460Z,22.50
2019-02-17T14:53:11.527Z,22.50
2019-02-17T14:55:38.588Z,22.50
2019-02-17T14:58:05.967Z,22.50
2019-02-17T15:00:33.316Z,22.50
2019-02-17T15:03:00.422Z,22.50
2019-02-17T15:05:27.493Z,22.50
2019-02-17T15:07:54.581Z,22.50
2019-02-17T15:10:21.639Z,22.50
2019-02-17T15:12:48.726Z,22.50
2019-02-17T15:15:15.793Z,22.50
2019-02-17T15:17:42.874Z,22.50
2019-02-17T15:20:10.019Z,22.50
2019-02-17T15:22:37.121Z,22.50
2019-02-17T15:25:04.212Z,22.50
2019-02-17T15:27:31.280Z,22.50
2019-02-17T15:29:58.367Z,22.50
2019-02-17T15:32:26.244Z,22.50
2019-02-17T15:34:53.356Z,22.50
2019-02-17T15:37:20.442Z,22.50
2019-02-17T15:39:47.521Z,22.50
2019-02-17T15:42:14.639Z,22.50
2019-02-17T15:44:41.764Z,22.50
2019-02-17T15:47:08.847Z,22.50
2019-02-17T15:49:35.908Z,22.50
2019-02-17T15:52:03.005Z,22.40
2019-02-17T15:54:30.076Z,22.40
2019-02-17T15:56:57.170Z,22.50
2019-02-17T15:59:24.271Z,22.40
2019-02-17T16:01:51.328Z,22.50
2019-02-17T16:04:27.938Z,22.50
2019-02-17T16:06:47.327Z,22.50
2019-02-17T16:09:14.564Z,22.50
2019-02-17T16:11:41.657Z,22.50
2019-02-17T16:14:08.721Z,22.50
2019-02-17T16:16:35.937Z,22.50
2019-02-17T16:19:03.034Z,22.50
2019-02-17T16:21:30.124Z,22.50
2019-02-17T16:23:57.278Z,22.50
2019-02-17T16:26:24.390Z,22.50
2019-02-17T16:28:51.454Z,22.50
2019-02-17T16:31:18.531Z,22.50
2019-02-17T16:33:45.664Z,22.50
2019-02-17T16:36:12.720Z,22.50
2019-02-17T16:38:39.819Z,22.50
2019-02-17T16:41:06.917Z,22.50
2019-02-17T16:43:34.047Z,22.50
2019-02-17T16:46:03.744Z,22.50
2019-02-17T16:48:30.801Z,22.50
2019-02-17T16:50:57.890Z,22.50
2019-02-17T16:53:25.125Z,22.50
2019-02-17T16:55:52.197Z,22.50
2019-02-17T16:58:19.293Z,22.50
2019-02-17T17:00:46.377Z,22.50
2019-02-17T17:03:13.435Z,22.50
2019-02-17T17:05:40.583Z,22.50
2019-02-17T17:08:07.859Z,22.50
2019-02-17T17:10:34.975Z,22.50
2019-02-17T17:13:02.348Z,22.50
2019-02-17T17:15:29.947Z,22.50
2019-02-17T17:17:57.409Z,22.50
2019-02-17T17:20:24.650Z,22.60
2019-02-17T17:22:51.755Z,22.60
2019-02-17T17:25:18.805Z,22.60
2019-02-17T17:27:45.871Z,22.60
2019-02-17T17:30:13.223Z,22.60
2019-02-17T17:32:40.347Z,22.60
2019-02-17T17:35:07.413Z,22.60
2019-02-17T17:37:34.483Z,22.60
2019-02-17T17:40:01.813Z,22.60
2019-02-17T17:42:28.858Z,22.60
2019-02-17T17:44:56.027Z,22.60
2019-02-17T17:47:23.721Z,22.60
2019-02-17T17:49:50.803Z,22.60
2019-02-17T17:52:18.076Z,22.60
2019-02-17T17:54:45.218Z,22.60
2019-02-17T17:57:12.357Z,22.60
2019-02-17T17:59:39.646Z,22.60
2019-02-17T18:02:06.887Z,22.60
2019-02-17T18:04:33.984Z,22.60
2019-02-17T18:07:02.243Z,22.60
2019-02-17T18:09:29.333Z,22.60
2019-02-17T18:11:56.428Z,22.60
2019-02-17T18:14:24.006Z,22.60
2019-02-17T18:16:51.128Z,22.60
2019-02-17T18:19:18.209Z,22.60
2019-02-17T18:21:45.321Z,22.60
2019-02-17T18:24:12.781Z,22.60
2019-02-17T18:26:39.966Z,22.60
2019-02-17T18:29:07.019Z,22.60
2019-02-17T18:31:34.163Z,22.60
2019-02-17T18:34:01.315Z,22.60
2019-02-17T18:36:28.421Z,22.60
2019-02-17T18:38:55.486Z,22.60
2019-02-17T18:41:22.584Z,22.60
2019-02-17T18:43:49.718Z,22.60
2019-02-17T18:46:17.144Z,22.60
2019-02-17T18:48:44.295Z,22.60
2019-02-17T18:51:12.335Z,22.60
2019-02-17T18:53:39.547Z,22.60
2019-02-17T18:56:06.639Z,22.60
2019-02-17T18:58:33.794Z,22.60
2019-02-17T19:01:00.852Z,22.60
2019-02-17T19:03:28.197Z,22.60
2019-02-17T19:05:55.277Z,22.60
2019-02-17T19:08:22.339Z,22.60
2019-02-17T19:10:49.471Z,22.60
2019-02-17T19:13:16.826Z,22.60
2019-02-17T19:15:44.157Z,22.60
2019-02-17T19:18:11.251Z,22.60
2019-02-17T19:20:38.376Z,22.60
2019-02-17T19:23:05.537Z,22.60
2019-02-17T19:25:32.665Z,22.60
2019-02-17T19:27:59.789Z,22.60
2019-02-17T19:30:26.884Z,22.60
2019-02-17T19:32:54.050Z,22.60
2019-02-17T19:35:21.493Z,22.60
2019-02-17T19:37:48.726Z,22.60
2019-02-17T19:40:16.025Z,22.60
2019-02-17T19:42:43.152Z,22.60
2019-02-17T19:45:10.364Z,22.60
2019-02-17T19:47:37.467Z,22.60
2019-02-17T19:50:04.568Z,22.60
2019-02-17T19:52:32.567Z,22.60
2019-02-17T19:54:59.812Z,22.60
2019-02-17T19:57:26.961Z,22.60
2019-02-17T19:59:54.252Z,22.60
2019-02-17T20:02:22.233Z,22.60
2019-02-17T20:04:51.753Z,22.60
2019-02-17T20:07:18.838Z,22.60
2019-02-17T20:09:46.089Z,22.60
2019-02-17T20:12:13.209Z,22.60
2019-02-17T20:14:40.625Z,22.60
2019-02-17T20:17:07.779Z,22.60
2019-02-17T20:19:35.187Z,22.60
2019-02-17T20:22:02.428Z,22.60
2019-02-17T20:24:29.712Z,22.60
2019-02-17T20:26:56.905Z,22.60
2019-02-17T20:29:24.071Z,22.60
2019-02-17T20:31:51.207Z,22.60
2019-02-17T20:34:18.306Z,22.60
2019-02-17T20:36:45.492Z,22.60
2019-02-17T20:39:13.667Z,22.60
2019-02-17T20:41:40.733Z,22.60
2019-02-17T20:44:07.791Z,22.60
2019-02-17T20:46:37.090Z,22.60
2019-02-17T20:49:04.385Z,22.60
2019-02-17T20:51:33.798Z,22.60
2019-02-17T20:54:00.855Z,22.60
2019-02-17T20:56:27.956Z,22.60
2019-02-17T20:58:55.073Z,22.60
2019-02-17T21:01:22.142Z,22.60
2019-02-17T21:03:49.393Z,22.50
2019-02-17T21:06:16.459Z,22.50
2019-02-17T21:08:43.627Z,22.50
2019-02-17T21:11:10.799Z,22.50
2019-02-17T21:13:37.845Z,22.50
2019-02-17T21:16:05.043Z,22.50
2019-02-17T21:18:32.106Z,22.50
2019-02-17T21:20:59.279Z,22.60
2019-02-17T21:23:26.375Z,22.50
2019-02-17T21:25:53.573Z,22.50
2019-02-17T21:28:20.934Z,22.50
2019-02-17T21:30:50.469Z,22.50
2019-02-17T21:33:17.043Z,22.50
2019-02-17T21:35:44.216Z,22.50
2019-02-17T21:38:11.363Z,22.50
2019-02-17T21:40:38.522Z,22.50
2019-02-17T21:43:05.854Z,22.50
2019-02-17T21:45:32.984Z,22.50
2019-02-17T21:48:00.075Z,22.50
2019-02-17T21:50:27.158Z,22.50
2019-02-17T21:52:54.235Z,22.50
2019-02-17T21:55:21.483Z,22.50
2019-02-17T21:57:48.707Z,22.50
2019-02-17T22:00:15.832Z,22.50
2019-02-17T22:02:43.394Z,22.40
2019-02-17T22:05:10.474Z,22.40
2019-02-17T22:07:37.569Z,22.50
2019-02-17T22:10:04.647Z,22.40
2019-02-17T22:12:31.747Z,22.50
2019-02-17T22:14:58.796Z,22.40
2019-02-17T22:17:26.391Z,22.40
2019-02-17T22:19:53.447Z,22.40
2019-02-17T22:22:20.543Z,22.40
2019-02-17T22:24:47.610Z,22.40
2019-02-17T22:27:14.719Z,22.40
2019-02-17T22:29:41.832Z,22.40
2019-02-17T22:32:08.992Z,22.40
2019-02-17T22:34:36.042Z,22.40
2019-02-17T22:37:03.663Z,22.40
2019-02-17T22:39:30.807Z,22.40
2019-02-17T22:41:57.975Z,22.40
2019-02-17T22:44:25.906Z,22.40
2019-02-17T22:46:53.180Z,22.40
2019-02-17T22:49:20.232Z,22.40
2019-02-17T22:51:47.299Z,22.40
2019-02-17T22:54:14.410Z,22.40
2019-02-17T22:56:41.626Z,22.40
2019-02-17T22:59:08.713Z,22.40
2019-02-17T23:01:35.818Z,22.40
2019-02-17T23:04:02.937Z,22.40
2019-02-17T23:06:30.172Z,22.40
2019-02-17T23:08:57.265Z,22.40
2019-02-17T23:11:24.327Z,22.40
2019-02-17T23:13:51.513Z,22.40
2019-02-17T23:16:18.593Z,22.40
2019-02-17T23:18:45.683Z,22.40
2019-02-17T23:21:12.774Z,22.40
2019-02-17T23:23:39.838Z,22.40
2019-02-17T23:26:06.923Z,22.40
2019-02-17T23:28:34.017Z,22.40
2019-02-17T23:31:01.137Z,22.40
2019-02-17T23:33:28.312Z,22.40
2019-02-17T23:35:55.370Z,22.30
2019-02-17T23:38:24.026Z,22.40
2019-02-17T23:40:51.251Z,22.30
2019-02-17T23:43:22.930Z,22.30
2019-02-17T23:45:49.999Z,22.30
2019-02-17T23:48:17.088Z,22.30
2019-02-17T23:50:44.184Z,22.30
2019-02-17T23:53:11.237Z,22.40
2019-02-17T23:55:38.519Z,22.30
2019-02-17T23:58:05.673Z,22.30
